sensor_id;sensor_type;location;lat;lon;timestamp;P1;durP1;ratioP1;P2;durP2;ratioP2
74791;SDS011;63319;46.046;17.802;2024-03-02T00:02:43;54.03;;;28.13;;
74791;SDS011;63319;46.046;17.802;2024-03-02T00:05:50;54.35;;;28.23;;
74791;SDS011;63319;46.046;17.802;2024-03-02T00:08:57;50.97;;;27.52;;
74791;SDS011;63319;46.046;17.802;2024-03-02T00:12:01;51.80;;;27.30;;
74791;SDS011;63319;46.046;17.802;2024-03-02T00:15:06;50.90;;;25.95;;
74791;SDS011;63319;46.046;17.802;2024-03-02T00:18:32;48.33;;;26.50;;
74791;SDS011;63319;46.046;17.802;2024-03-02T00:21:37;52.03;;;26.83;;
74791;SDS011;63319;46.046;17.802;2024-03-02T00:24:40;48.28;;;25.73;;
74791;SDS011;63319;46.046;17.802;2024-03-02T00:27:47;48.17;;;25.77;;
74791;SDS011;63319;46.046;17.802;2024-03-02T00:34:01;52.40;;;25.10;;
74791;SDS011;63319;46.046;17.802;2024-03-02T00:37:08;40.55;;;23.15;;
74791;SDS011;63319;46.046;17.802;2024-03-02T00:40:11;46.72;;;23.95;;
74791;SDS011;63319;46.046;17.802;2024-03-02T00:43:25;41.87;;;22.63;;
74791;SDS011;63319;46.046;17.802;2024-03-02T00:46:49;43.83;;;22.15;;
74791;SDS011;63319;46.046;17.802;2024-03-02T00:49:52;44.47;;;22.42;;
74791;SDS011;63319;46.046;17.802;2024-03-02T00:52:55;42.90;;;22.50;;
74791;SDS011;63319;46.046;17.802;2024-03-02T00:55:59;42.03;;;23.00;;
74791;SDS011;63319;46.046;17.802;2024-03-02T00:59:03;41.67;;;23.83;;
74791;SDS011;63319;46.046;17.802;2024-03-02T01:02:06;46.80;;;23.33;;
74791;SDS011;63319;46.046;17.802;2024-03-02T01:05:09;42.60;;;22.67;;
74791;SDS011;63319;46.046;17.802;2024-03-02T01:08:12;55.95;;;25.98;;
74791;SDS011;63319;46.046;17.802;2024-03-02T01:11:15;49.55;;;25.25;;
74791;SDS011;63319;46.046;17.802;2024-03-02T01:14:18;43.03;;;23.43;;
74791;SDS011;63319;46.046;17.802;2024-03-02T01:17:21;45.45;;;24.35;;
74791;SDS011;63319;46.046;17.802;2024-03-02T01:20:25;40.53;;;23.02;;
74791;SDS011;63319;46.046;17.802;2024-03-02T01:23:28;45.87;;;24.20;;
74791;SDS011;63319;46.046;17.802;2024-03-02T01:26:31;42.75;;;23.17;;
74791;SDS011;63319;46.046;17.802;2024-03-02T01:29:33;39.85;;;21.23;;
74791;SDS011;63319;46.046;17.802;2024-03-02T01:32:40;38.95;;;21.38;;
74791;SDS011;63319;46.046;17.802;2024-03-02T01:35:43;42.03;;;22.08;;
74791;SDS011;63319;46.046;17.802;2024-03-02T01:38:46;46.13;;;23.35;;
74791;SDS011;63319;46.046;17.802;2024-03-02T01:41:49;39.67;;;20.90;;
74791;SDS011;63319;46.046;17.802;2024-03-02T01:44:52;45.73;;;23.30;;
74791;SDS011;63319;46.046;17.802;2024-03-02T01:47:55;43.33;;;23.20;;
74791;SDS011;63319;46.046;17.802;2024-03-02T01:50:58;41.50;;;22.38;;
74791;SDS011;63319;46.046;17.802;2024-03-02T01:54:01;42.27;;;21.77;;
74791;SDS011;63319;46.046;17.802;2024-03-02T01:57:05;41.75;;;22.13;;
74791;SDS011;63319;46.046;17.802;2024-03-02T02:00:09;38.85;;;22.30;;
74791;SDS011;63319;46.046;17.802;2024-03-02T02:03:14;46.42;;;24.13;;
74791;SDS011;63319;46.046;17.802;2024-03-02T02:06:16;49.38;;;24.75;;
74791;SDS011;63319;46.046;17.802;2024-03-02T02:09:20;43.33;;;23.13;;
74791;SDS011;63319;46.046;17.802;2024-03-02T02:12:23;43.53;;;21.25;;
74791;SDS011;63319;46.046;17.802;2024-03-02T02:15:29;37.33;;;20.17;;
74791;SDS011;63319;46.046;17.802;2024-03-02T02:18:33;39.40;;;21.17;;
74791;SDS011;63319;46.046;17.802;2024-03-02T02:21:36;40.55;;;22.30;;
74791;SDS011;63319;46.046;17.802;2024-03-02T02:24:42;40.60;;;22.67;;
74791;SDS011;63319;46.046;17.802;2024-03-02T02:27:45;40.75;;;20.05;;
74791;SDS011;63319;46.046;17.802;2024-03-02T02:30:48;37.80;;;20.08;;
74791;SDS011;63319;46.046;17.802;2024-03-02T02:33:51;38.83;;;21.27;;
74791;SDS011;63319;46.046;17.802;2024-03-02T02:36:54;40.65;;;22.23;;
74791;SDS011;63319;46.046;17.802;2024-03-02T02:39:57;41.63;;;23.50;;
74791;SDS011;63319;46.046;17.802;2024-03-02T02:43:00;48.35;;;23.08;;
74791;SDS011;63319;46.046;17.802;2024-03-02T02:46:03;40.60;;;22.73;;
74791;SDS011;63319;46.046;17.802;2024-03-02T02:49:06;49.38;;;22.13;;
74791;SDS011;63319;46.046;17.802;2024-03-02T02:52:10;39.85;;;21.60;;
74791;SDS011;63319;46.046;17.802;2024-03-02T02:55:13;47.87;;;22.83;;
74791;SDS011;63319;46.046;17.802;2024-03-02T02:58:18;43.38;;;23.17;;
74791;SDS011;63319;46.046;17.802;2024-03-02T03:01:21;44.55;;;21.23;;
74791;SDS011;63319;46.046;17.802;2024-03-02T03:04:25;35.63;;;19.98;;
74791;SDS011;63319;46.046;17.802;2024-03-02T03:07:28;33.55;;;19.50;;
74791;SDS011;63319;46.046;17.802;2024-03-02T03:10:31;35.92;;;18.92;;
74791;SDS011;63319;46.046;17.802;2024-03-02T03:13:36;30.70;;;16.42;;
74791;SDS011;63319;46.046;17.802;2024-03-02T03:16:39;30.93;;;15.00;;
74791;SDS011;63319;46.046;17.802;2024-03-02T03:19:42;28.48;;;15.32;;
74791;SDS011;63319;46.046;17.802;2024-03-02T03:22:45;29.52;;;13.73;;
74791;SDS011;63319;46.046;17.802;2024-03-02T03:25:48;31.73;;;11.57;;
74791;SDS011;63319;46.046;17.802;2024-03-02T03:28:51;24.27;;;13.15;;
74791;SDS011;63319;46.046;17.802;2024-03-02T03:31:54;26.45;;;13.55;;
74791;SDS011;63319;46.046;17.802;2024-03-02T03:34:57;27.48;;;12.77;;
74791;SDS011;63319;46.046;17.802;2024-03-02T03:38:00;21.63;;;11.77;;
74791;SDS011;63319;46.046;17.802;2024-03-02T03:41:03;23.98;;;10.95;;
74791;SDS011;63319;46.046;17.802;2024-03-02T03:44:06;19.17;;;10.85;;
74791;SDS011;63319;46.046;17.802;2024-03-02T03:47:10;18.20;;;8.90;;
74791;SDS011;63319;46.046;17.802;2024-03-02T03:50:13;20.58;;;9.93;;
74791;SDS011;63319;46.046;17.802;2024-03-02T03:53:17;20.50;;;10.20;;
74791;SDS011;63319;46.046;17.802;2024-03-02T03:56:20;21.23;;;11.33;;
74791;SDS011;63319;46.046;17.802;2024-03-02T03:59:23;17.27;;;10.45;;
74791;SDS011;63319;46.046;17.802;2024-03-02T04:02:26;24.73;;;13.65;;
74791;SDS011;63319;46.046;17.802;2024-03-02T04:05:29;23.42;;;12.30;;
74791;SDS011;63319;46.046;17.802;2024-03-02T04:08:32;23.38;;;11.82;;
74791;SDS011;63319;46.046;17.802;2024-03-02T04:11:35;22.75;;;11.57;;
74791;SDS011;63319;46.046;17.802;2024-03-02T04:14:38;20.38;;;12.45;;
74791;SDS011;63319;46.046;17.802;2024-03-02T04:17:41;21.70;;;12.00;;
74791;SDS011;63319;46.046;17.802;2024-03-02T04:20:44;25.30;;;12.57;;
74791;SDS011;63319;46.046;17.802;2024-03-02T04:23:47;21.70;;;11.77;;
74791;SDS011;63319;46.046;17.802;2024-03-02T04:26:50;22.60;;;11.97;;
74791;SDS011;63319;46.046;17.802;2024-03-02T04:29:53;26.65;;;13.75;;
74791;SDS011;63319;46.046;17.802;2024-03-02T04:32:56;23.90;;;12.80;;
74791;SDS011;63319;46.046;17.802;2024-03-02T04:35:59;23.95;;;12.63;;
74791;SDS011;63319;46.046;17.802;2024-03-02T04:39:02;25.67;;;12.98;;
74791;SDS011;63319;46.046;17.802;2024-03-02T04:42:05;25.08;;;14.18;;
74791;SDS011;63319;46.046;17.802;2024-03-02T04:45:08;21.88;;;12.32;;
74791;SDS011;63319;46.046;17.802;2024-03-02T04:48:11;23.47;;;12.33;;
74791;SDS011;63319;46.046;17.802;2024-03-02T04:51:15;28.08;;;14.05;;
74791;SDS011;63319;46.046;17.802;2024-03-02T04:54:18;23.77;;;12.70;;
74791;SDS011;63319;46.046;17.802;2024-03-02T04:57:21;27.03;;;15.20;;
74791;SDS011;63319;46.046;17.802;2024-03-02T05:00:24;31.60;;;14.48;;
74791;SDS011;63319;46.046;17.802;2024-03-02T05:03:27;29.92;;;14.48;;
74791;SDS011;63319;46.046;17.802;2024-03-02T05:06:30;24.60;;;13.57;;
74791;SDS011;63319;46.046;17.802;2024-03-02T05:09:33;25.15;;;14.07;;
74791;SDS011;63319;46.046;17.802;2024-03-02T05:12:36;25.88;;;15.00;;
74791;SDS011;63319;46.046;17.802;2024-03-02T05:15:45;31.83;;;16.27;;
74791;SDS011;63319;46.046;17.802;2024-03-02T05:18:48;30.50;;;15.70;;
74791;SDS011;63319;46.046;17.802;2024-03-02T05:21:51;33.53;;;16.40;;
74791;SDS011;63319;46.046;17.802;2024-03-02T05:24:55;30.50;;;16.75;;
74791;SDS011;63319;46.046;17.802;2024-03-02T05:27:57;30.40;;;13.70;;
74791;SDS011;63319;46.046;17.802;2024-03-02T05:31:00;30.38;;;14.52;;
74791;SDS011;63319;46.046;17.802;2024-03-02T05:34:04;28.75;;;13.85;;
74791;SDS011;63319;46.046;17.802;2024-03-02T05:37:08;27.67;;;14.48;;
74791;SDS011;63319;46.046;17.802;2024-03-02T05:40:11;31.00;;;15.55;;
74791;SDS011;63319;46.046;17.802;2024-03-02T05:43:16;27.05;;;14.95;;
74791;SDS011;63319;46.046;17.802;2024-03-02T05:46:18;24.67;;;13.75;;
74791;SDS011;63319;46.046;17.802;2024-03-02T05:49:21;31.63;;;14.70;;
74791;SDS011;63319;46.046;17.802;2024-03-02T05:52:24;30.00;;;15.70;;
74791;SDS011;63319;46.046;17.802;2024-03-02T05:55:27;30.15;;;14.88;;
74791;SDS011;63319;46.046;17.802;2024-03-02T05:58:30;28.13;;;15.37;;
74791;SDS011;63319;46.046;17.802;2024-03-02T06:01:54;30.30;;;15.25;;
74791;SDS011;63319;46.046;17.802;2024-03-02T06:04:57;33.20;;;16.48;;
74791;SDS011;63319;46.046;17.802;2024-03-02T06:08:00;31.30;;;16.77;;
74791;SDS011;63319;46.046;17.802;2024-03-02T06:11:03;31.38;;;15.80;;
74791;SDS011;63319;46.046;17.802;2024-03-02T06:14:06;31.42;;;16.17;;
74791;SDS011;63319;46.046;17.802;2024-03-02T06:17:10;28.33;;;16.00;;
74791;SDS011;63319;46.046;17.802;2024-03-02T06:20:14;31.07;;;15.87;;
74791;SDS011;63319;46.046;17.802;2024-03-02T06:23:17;27.92;;;16.17;;
74791;SDS011;63319;46.046;17.802;2024-03-02T06:26:20;25.98;;;15.38;;
74791;SDS011;63319;46.046;17.802;2024-03-02T06:29:26;30.43;;;16.27;;
74791;SDS011;63319;46.046;17.802;2024-03-02T06:32:29;31.00;;;17.80;;
74791;SDS011;63319;46.046;17.802;2024-03-02T06:35:33;34.97;;;18.52;;
74791;SDS011;63319;46.046;17.802;2024-03-02T06:38:36;29.27;;;15.73;;
74791;SDS011;63319;46.046;17.802;2024-03-02T06:41:42;29.20;;;16.70;;
74791;SDS011;63319;46.046;17.802;2024-03-02T06:44:45;28.48;;;15.25;;
74791;SDS011;63319;46.046;17.802;2024-03-02T06:47:48;29.13;;;16.45;;
74791;SDS011;63319;46.046;17.802;2024-03-02T06:50:51;27.43;;;15.47;;
74791;SDS011;63319;46.046;17.802;2024-03-02T06:53:54;31.00;;;16.67;;
74791;SDS011;63319;46.046;17.802;2024-03-02T06:56:58;28.38;;;15.57;;
74791;SDS011;63319;46.046;17.802;2024-03-02T07:00:01;29.30;;;15.87;;
74791;SDS011;63319;46.046;17.802;2024-03-02T07:03:07;28.90;;;15.70;;
74791;SDS011;63319;46.046;17.802;2024-03-02T07:06:10;36.58;;;18.77;;
74791;SDS011;63319;46.046;17.802;2024-03-02T07:09:13;33.00;;;18.30;;
74791;SDS011;63319;46.046;17.802;2024-03-02T07:12:16;29.67;;;17.15;;
74791;SDS011;63319;46.046;17.802;2024-03-02T07:15:19;32.55;;;18.92;;
74791;SDS011;63319;46.046;17.802;2024-03-02T07:18:46;33.83;;;18.88;;
74791;SDS011;63319;46.046;17.802;2024-03-02T07:21:54;36.30;;;19.33;;
74791;SDS011;63319;46.046;17.802;2024-03-02T07:24:57;34.95;;;18.65;;
74791;SDS011;63319;46.046;17.802;2024-03-02T07:28:01;34.72;;;19.40;;
74791;SDS011;63319;46.046;17.802;2024-03-02T07:31:04;35.87;;;20.77;;
74791;SDS011;63319;46.046;17.802;2024-03-02T07:34:07;37.63;;;21.10;;
74791;SDS011;63319;46.046;17.802;2024-03-02T07:37:10;36.08;;;21.85;;
74791;SDS011;63319;46.046;17.802;2024-03-02T07:40:13;37.72;;;20.75;;
74791;SDS011;63319;46.046;17.802;2024-03-02T07:43:17;33.25;;;18.70;;
74791;SDS011;63319;46.046;17.802;2024-03-02T07:46:20;31.25;;;18.80;;
74791;SDS011;63319;46.046;17.802;2024-03-02T07:49:23;35.40;;;19.02;;
74791;SDS011;63319;46.046;17.802;2024-03-02T07:52:26;33.57;;;18.17;;
74791;SDS011;63319;46.046;17.802;2024-03-02T07:55:29;32.60;;;18.85;;
74791;SDS011;63319;46.046;17.802;2024-03-02T07:58:33;33.58;;;19.45;;
74791;SDS011;63319;46.046;17.802;2024-03-02T08:01:36;30.80;;;16.80;;
74791;SDS011;63319;46.046;17.802;2024-03-02T08:04:39;32.95;;;17.63;;
74791;SDS011;63319;46.046;17.802;2024-03-02T08:07:43;31.52;;;17.88;;
74791;SDS011;63319;46.046;17.802;2024-03-02T08:10:47;38.45;;;19.88;;
74791;SDS011;63319;46.046;17.802;2024-03-02T08:13:51;32.40;;;19.13;;
74791;SDS011;63319;46.046;17.802;2024-03-02T08:16:56;31.50;;;17.98;;
74791;SDS011;63319;46.046;17.802;2024-03-02T08:20:00;30.00;;;15.55;;
74791;SDS011;63319;46.046;17.802;2024-03-02T08:23:03;29.97;;;16.27;;
74791;SDS011;63319;46.046;17.802;2024-03-02T08:26:06;28.53;;;15.07;;
74791;SDS011;63319;46.046;17.802;2024-03-02T08:29:09;27.65;;;17.02;;
74791;SDS011;63319;46.046;17.802;2024-03-02T08:32:12;31.38;;;18.83;;
74791;SDS011;63319;46.046;17.802;2024-03-02T08:35:15;33.90;;;17.10;;
74791;SDS011;63319;46.046;17.802;2024-03-02T08:38:18;29.58;;;16.73;;
74791;SDS011;63319;46.046;17.802;2024-03-02T08:41:21;25.15;;;14.20;;
74791;SDS011;63319;46.046;17.802;2024-03-02T08:44:24;26.88;;;14.52;;
74791;SDS011;63319;46.046;17.802;2024-03-02T08:47:27;31.87;;;16.57;;
74791;SDS011;63319;46.046;17.802;2024-03-02T08:50:30;28.02;;;15.40;;
74791;SDS011;63319;46.046;17.802;2024-03-02T08:53:33;27.45;;;15.52;;
74791;SDS011;63319;46.046;17.802;2024-03-02T08:56:36;29.43;;;15.40;;
74791;SDS011;63319;46.046;17.802;2024-03-02T08:59:38;24.90;;;16.00;;
74791;SDS011;63319;46.046;17.802;2024-03-02T09:02:43;27.63;;;17.02;;
74791;SDS011;63319;46.046;17.802;2024-03-02T09:05:47;28.50;;;16.05;;
74791;SDS011;63319;46.046;17.802;2024-03-02T09:08:50;34.10;;;17.23;;
74791;SDS011;63319;46.046;17.802;2024-03-02T09:11:54;33.05;;;17.00;;
74791;SDS011;63319;46.046;17.802;2024-03-02T09:15:03;28.08;;;16.58;;
74791;SDS011;63319;46.046;17.802;2024-03-02T09:18:08;26.48;;;15.45;;
74791;SDS011;63319;46.046;17.802;2024-03-02T09:21:11;29.00;;;17.10;;
74791;SDS011;63319;46.046;17.802;2024-03-02T09:24:14;25.40;;;15.55;;
74791;SDS011;63319;46.046;17.802;2024-03-02T09:27:19;29.85;;;16.25;;
74791;SDS011;63319;46.046;17.802;2024-03-02T09:30:23;24.60;;;15.50;;
74791;SDS011;63319;46.046;17.802;2024-03-02T09:33:26;27.92;;;16.23;;
74791;SDS011;63319;46.046;17.802;2024-03-02T09:36:29;28.38;;;15.75;;
74791;SDS011;63319;46.046;17.802;2024-03-02T09:39:32;29.88;;;15.80;;
74791;SDS011;63319;46.046;17.802;2024-03-02T09:42:35;21.97;;;12.47;;
74791;SDS011;63319;46.046;17.802;2024-03-02T09:45:39;20.95;;;11.65;;
74791;SDS011;63319;46.046;17.802;2024-03-02T09:48:43;21.38;;;11.68;;
74791;SDS011;63319;46.046;17.802;2024-03-02T09:51:47;26.33;;;13.50;;
74791;SDS011;63319;46.046;17.802;2024-03-02T09:54:54;21.63;;;12.83;;
74791;SDS011;63319;46.046;17.802;2024-03-02T09:57:57;21.77;;;13.63;;
74791;SDS011;63319;46.046;17.802;2024-03-02T10:01:00;22.38;;;13.68;;
74791;SDS011;63319;46.046;17.802;2024-03-02T10:04:03;23.87;;;13.30;;
74791;SDS011;63319;46.046;17.802;2024-03-02T10:07:12;22.60;;;13.23;;
74791;SDS011;63319;46.046;17.802;2024-03-02T10:10:19;23.13;;;12.73;;
74791;SDS011;63319;46.046;17.802;2024-03-02T10:13:22;19.42;;;11.85;;
74791;SDS011;63319;46.046;17.802;2024-03-02T10:16:27;21.10;;;11.38;;
74791;SDS011;63319;46.046;17.802;2024-03-02T10:19:30;17.30;;;11.80;;
74791;SDS011;63319;46.046;17.802;2024-03-02T10:22:39;17.30;;;11.47;;
74791;SDS011;63319;46.046;17.802;2024-03-02T10:25:43;17.67;;;11.55;;
74791;SDS011;63319;46.046;17.802;2024-03-02T10:28:59;19.00;;;11.55;;
74791;SDS011;63319;46.046;17.802;2024-03-02T10:32:02;20.48;;;11.32;;
74791;SDS011;63319;46.046;17.802;2024-03-02T10:35:05;20.00;;;11.70;;
74791;SDS011;63319;46.046;17.802;2024-03-02T10:38:09;22.43;;;11.83;;
74791;SDS011;63319;46.046;17.802;2024-03-02T10:41:18;17.25;;;10.70;;
74791;SDS011;63319;46.046;17.802;2024-03-02T10:44:21;17.42;;;10.35;;
74791;SDS011;63319;46.046;17.802;2024-03-02T10:47:25;16.48;;;10.60;;
74791;SDS011;63319;46.046;17.802;2024-03-02T10:50:30;16.50;;;9.83;;
74791;SDS011;63319;46.046;17.802;2024-03-02T10:53:33;18.10;;;11.13;;
74791;SDS011;63319;46.046;17.802;2024-03-02T10:56:40;16.08;;;12.00;;
74791;SDS011;63319;46.046;17.802;2024-03-02T10:59:51;18.17;;;11.02;;
74791;SDS011;63319;46.046;17.802;2024-03-02T11:02:56;16.30;;;10.38;;
74791;SDS011;63319;46.046;17.802;2024-03-02T11:06:06;18.63;;;11.10;;
74791;SDS011;63319;46.046;17.802;2024-03-02T11:09:10;16.73;;;10.27;;
74791;SDS011;63319;46.046;17.802;2024-03-02T11:12:17;18.20;;;11.27;;
74791;SDS011;63319;46.046;17.802;2024-03-02T11:15:22;16.60;;;11.30;;
74791;SDS011;63319;46.046;17.802;2024-03-02T11:18:29;20.23;;;11.60;;
74791;SDS011;63319;46.046;17.802;2024-03-02T11:21:33;18.97;;;10.93;;
74791;SDS011;63319;46.046;17.802;2024-03-02T11:24:37;18.40;;;10.00;;
74791;SDS011;63319;46.046;17.802;2024-03-02T11:30:51;15.32;;;10.10;;
74791;SDS011;63319;46.046;17.802;2024-03-02T11:33:55;14.40;;;10.05;;
74791;SDS011;63319;46.046;17.802;2024-03-02T11:36:58;13.70;;;8.30;;
74791;SDS011;63319;46.046;17.802;2024-03-02T11:40:02;12.70;;;8.90;;
74791;SDS011;63319;46.046;17.802;2024-03-02T11:43:05;13.43;;;9.15;;
74791;SDS011;63319;46.046;17.802;2024-03-02T11:46:09;13.00;;;8.20;;
74791;SDS011;63319;46.046;17.802;2024-03-02T11:49:14;12.52;;;7.97;;
74791;SDS011;63319;46.046;17.802;2024-03-02T11:52:17;14.37;;;9.47;;
74791;SDS011;63319;46.046;17.802;2024-03-02T11:55:20;15.13;;;8.47;;
74791;SDS011;63319;46.046;17.802;2024-03-02T11:58:24;13.40;;;8.93;;
74791;SDS011;63319;46.046;17.802;2024-03-02T12:01:29;15.20;;;9.70;;
74791;SDS011;63319;46.046;17.802;2024-03-02T12:04:32;15.32;;;9.27;;
74791;SDS011;63319;46.046;17.802;2024-03-02T12:07:34;14.63;;;9.57;;
74791;SDS011;63319;46.046;17.802;2024-03-02T12:10:38;15.37;;;8.70;;
74791;SDS011;63319;46.046;17.802;2024-03-02T12:13:41;13.30;;;8.73;;
74791;SDS011;63319;46.046;17.802;2024-03-02T12:16:44;14.38;;;9.95;;
74791;SDS011;63319;46.046;17.802;2024-03-02T12:19:47;16.17;;;10.80;;
74791;SDS011;63319;46.046;17.802;2024-03-02T12:22:54;13.57;;;8.07;;
74791;SDS011;63319;46.046;17.802;2024-03-02T12:25:58;17.40;;;10.70;;
74791;SDS011;63319;46.046;17.802;2024-03-02T12:29:02;44.53;;;29.17;;
74791;SDS011;63319;46.046;17.802;2024-03-02T12:32:05;31.88;;;19.73;;
74791;SDS011;63319;46.046;17.802;2024-03-02T12:35:09;15.82;;;8.10;;
74791;SDS011;63319;46.046;17.802;2024-03-02T12:38:19;15.07;;;8.13;;
74791;SDS011;63319;46.046;17.802;2024-03-02T12:41:22;13.03;;;8.57;;
74791;SDS011;63319;46.046;17.802;2024-03-02T12:44:26;11.73;;;8.10;;
74791;SDS011;63319;46.046;17.802;2024-03-02T12:47:29;14.40;;;7.97;;
74791;SDS011;63319;46.046;17.802;2024-03-02T12:50:32;12.70;;;7.78;;
74791;SDS011;63319;46.046;17.802;2024-03-02T12:53:36;12.87;;;7.73;;
74791;SDS011;63319;46.046;17.802;2024-03-02T12:56:40;14.60;;;7.70;;
74791;SDS011;63319;46.046;17.802;2024-03-02T12:59:48;12.27;;;8.55;;
74791;SDS011;63319;46.046;17.802;2024-03-02T13:02:51;12.65;;;7.47;;
74791;SDS011;63319;46.046;17.802;2024-03-02T13:05:54;12.93;;;8.60;;
74791;SDS011;63319;46.046;17.802;2024-03-02T13:08:57;15.03;;;8.10;;
74791;SDS011;63319;46.046;17.802;2024-03-02T13:12:01;15.53;;;8.90;;
74791;SDS011;63319;46.046;17.802;2024-03-02T13:15:04;12.38;;;8.68;;
74791;SDS011;63319;46.046;17.802;2024-03-02T13:18:08;14.07;;;8.93;;
74791;SDS011;63319;46.046;17.802;2024-03-02T13:21:12;16.45;;;8.57;;
74791;SDS011;63319;46.046;17.802;2024-03-02T13:24:15;16.73;;;9.27;;
74791;SDS011;63319;46.046;17.802;2024-03-02T13:27:18;23.60;;;14.17;;
74791;SDS011;63319;46.046;17.802;2024-03-02T13:30:24;17.98;;;12.43;;
74791;SDS011;63319;46.046;17.802;2024-03-02T13:33:27;60.72;;;32.38;;
74791;SDS011;63319;46.046;17.802;2024-03-02T13:36:30;20.63;;;11.38;;
74791;SDS011;63319;46.046;17.802;2024-03-02T13:39:33;16.80;;;8.80;;
74791;SDS011;63319;46.046;17.802;2024-03-02T13:42:42;14.70;;;9.23;;
74791;SDS011;63319;46.046;17.802;2024-03-02T13:45:45;16.42;;;8.45;;
74791;SDS011;63319;46.046;17.802;2024-03-02T13:48:48;15.00;;;7.95;;
74791;SDS011;63319;46.046;17.802;2024-03-02T13:51:51;17.50;;;8.18;;
74791;SDS011;63319;46.046;17.802;2024-03-02T13:54:54;14.10;;;9.40;;
74791;SDS011;63319;46.046;17.802;2024-03-02T13:57:57;13.00;;;7.30;;
74791;SDS011;63319;46.046;17.802;2024-03-02T14:01:01;16.73;;;7.50;;
74791;SDS011;63319;46.046;17.802;2024-03-02T14:04:07;13.90;;;6.97;;
74791;SDS011;63319;46.046;17.802;2024-03-02T14:07:11;13.85;;;7.60;;
74791;SDS011;63319;46.046;17.802;2024-03-02T14:10:14;13.87;;;7.07;;
74791;SDS011;63319;46.046;17.802;2024-03-02T14:13:18;11.63;;;6.83;;
74791;SDS011;63319;46.046;17.802;2024-03-02T14:16:21;14.38;;;8.48;;
74791;SDS011;63319;46.046;17.802;2024-03-02T14:19:24;19.88;;;12.82;;
74791;SDS011;63319;46.046;17.802;2024-03-02T14:22:27;16.63;;;9.02;;
74791;SDS011;63319;46.046;17.802;2024-03-02T14:25:30;17.30;;;9.87;;
74791;SDS011;63319;46.046;17.802;2024-03-02T14:28:35;12.93;;;7.70;;
74791;SDS011;63319;46.046;17.802;2024-03-02T14:31:43;16.73;;;8.85;;
74791;SDS011;63319;46.046;17.802;2024-03-02T14:34:46;24.90;;;16.02;;
74791;SDS011;63319;46.046;17.802;2024-03-02T14:37:49;20.48;;;11.75;;
74791;SDS011;63319;46.046;17.802;2024-03-02T14:40:52;18.93;;;12.50;;
74791;SDS011;63319;46.046;17.802;2024-03-02T14:43:56;16.03;;;8.77;;
74791;SDS011;63319;46.046;17.802;2024-03-02T14:46:59;15.07;;;8.30;;
74791;SDS011;63319;46.046;17.802;2024-03-02T14:50:03;18.50;;;7.38;;
74791;SDS011;63319;46.046;17.802;2024-03-02T14:53:08;14.88;;;7.70;;
74791;SDS011;63319;46.046;17.802;2024-03-02T14:56:11;12.90;;;6.77;;
74791;SDS011;63319;46.046;17.802;2024-03-02T14:59:16;12.43;;;6.87;;
74791;SDS011;63319;46.046;17.802;2024-03-02T15:02:19;10.95;;;6.47;;
74791;SDS011;63319;46.046;17.802;2024-03-02T15:05:22;12.43;;;6.97;;
74791;SDS011;63319;46.046;17.802;2024-03-02T15:08:28;12.50;;;6.65;;
74791;SDS011;63319;46.046;17.802;2024-03-02T15:11:31;15.83;;;7.10;;
74791;SDS011;63319;46.046;17.802;2024-03-02T15:14:34;14.87;;;7.13;;
74791;SDS011;63319;46.046;17.802;2024-03-02T15:17:37;16.23;;;8.75;;
74791;SDS011;63319;46.046;17.802;2024-03-02T15:20:40;16.42;;;7.85;;
74791;SDS011;63319;46.046;17.802;2024-03-02T15:23:43;30.73;;;12.60;;
74791;SDS011;63319;46.046;17.802;2024-03-02T15:26:46;18.03;;;9.17;;
74791;SDS011;63319;46.046;17.802;2024-03-02T15:29:49;21.50;;;15.03;;
74791;SDS011;63319;46.046;17.802;2024-03-02T15:32:54;16.55;;;8.70;;
74791;SDS011;63319;46.046;17.802;2024-03-02T15:35:58;13.65;;;6.90;;
74791;SDS011;63319;46.046;17.802;2024-03-02T15:39:02;13.20;;;7.18;;
74791;SDS011;63319;46.046;17.802;2024-03-02T15:42:11;15.47;;;4.80;;
74791;SDS011;63319;46.046;17.802;2024-03-02T15:45:15;10.93;;;4.93;;
74791;SDS011;63319;46.046;17.802;2024-03-02T15:48:18;12.27;;;5.07;;
74791;SDS011;63319;46.046;17.802;2024-03-02T15:51:20;13.27;;;6.10;;
74791;SDS011;63319;46.046;17.802;2024-03-02T15:54:23;15.07;;;7.03;;
74791;SDS011;63319;46.046;17.802;2024-03-02T15:57:27;15.88;;;7.07;;
74791;SDS011;63319;46.046;17.802;2024-03-02T16:00:30;12.35;;;5.43;;
74791;SDS011;63319;46.046;17.802;2024-03-02T16:03:33;10.13;;;5.67;;
74791;SDS011;63319;46.046;17.802;2024-03-02T16:06:36;13.73;;;7.25;;
74791;SDS011;63319;46.046;17.802;2024-03-02T16:09:39;12.57;;;5.20;;
74791;SDS011;63319;46.046;17.802;2024-03-02T16:12:42;11.93;;;5.15;;
74791;SDS011;63319;46.046;17.802;2024-03-02T16:15:45;14.43;;;5.60;;
74791;SDS011;63319;46.046;17.802;2024-03-02T16:18:48;9.80;;;5.03;;
74791;SDS011;63319;46.046;17.802;2024-03-02T16:21:51;9.85;;;5.35;;
74791;SDS011;63319;46.046;17.802;2024-03-02T16:24:54;10.95;;;4.80;;
74791;SDS011;63319;46.046;17.802;2024-03-02T16:27:57;12.43;;;5.00;;
74791;SDS011;63319;46.046;17.802;2024-03-02T16:31:01;10.13;;;4.80;;
74791;SDS011;63319;46.046;17.802;2024-03-02T16:34:04;14.00;;;5.13;;
74791;SDS011;63319;46.046;17.802;2024-03-02T16:37:07;18.40;;;5.38;;
74791;SDS011;63319;46.046;17.802;2024-03-02T16:40:10;10.70;;;5.53;;
74791;SDS011;63319;46.046;17.802;2024-03-02T16:43:14;23.40;;;11.13;;
74791;SDS011;63319;46.046;17.802;2024-03-02T16:46:17;28.80;;;16.15;;
74791;SDS011;63319;46.046;17.802;2024-03-02T16:49:20;103.67;;;60.67;;
74791;SDS011;63319;46.046;17.802;2024-03-02T16:52:26;89.13;;;52.90;;
74791;SDS011;63319;46.046;17.802;2024-03-02T16:55:33;64.75;;;41.03;;
74791;SDS011;63319;46.046;17.802;2024-03-02T16:58:36;24.52;;;13.80;;
74791;SDS011;63319;46.046;17.802;2024-03-02T17:01:40;24.40;;;10.37;;
74791;SDS011;63319;46.046;17.802;2024-03-02T17:04:43;22.67;;;10.52;;
74791;SDS011;63319;46.046;17.802;2024-03-02T17:07:46;20.70;;;11.60;;
74791;SDS011;63319;46.046;17.802;2024-03-02T17:10:52;27.05;;;14.05;;
74791;SDS011;63319;46.046;17.802;2024-03-02T17:13:55;20.73;;;11.37;;
74791;SDS011;63319;46.046;17.802;2024-03-02T17:17:00;21.23;;;12.10;;
74791;SDS011;63319;46.046;17.802;2024-03-02T17:20:04;23.63;;;11.75;;
74791;SDS011;63319;46.046;17.802;2024-03-02T17:23:11;21.10;;;11.20;;
74791;SDS011;63319;46.046;17.802;2024-03-02T17:26:15;20.52;;;9.95;;
74791;SDS011;63319;46.046;17.802;2024-03-02T17:29:18;21.27;;;13.93;;
74791;SDS011;63319;46.046;17.802;2024-03-02T17:32:21;24.55;;;13.48;;
74791;SDS011;63319;46.046;17.802;2024-03-02T17:35:24;23.20;;;13.13;;
74791;SDS011;63319;46.046;17.802;2024-03-02T17:38:27;41.83;;;23.65;;
74791;SDS011;63319;46.046;17.802;2024-03-02T17:41:31;37.55;;;21.58;;
74791;SDS011;63319;46.046;17.802;2024-03-02T17:44:34;56.03;;;31.77;;
74791;SDS011;63319;46.046;17.802;2024-03-02T17:47:37;59.40;;;34.95;;
74791;SDS011;63319;46.046;17.802;2024-03-02T17:50:41;87.90;;;47.90;;